Time;durP1;ratioP1;P1;durP2;ratioP2;P2;SDS_P1;SDS_P2;PMS_P1;PMS_P2;Temp;Humidity;BMP_temperature;BMP_pressure;BME280_temperature;BME280_humidity;BME280_pressure;Samples;Min_cycle;Max_cycle;Signal;HPM_P1;HPM_P2
2023/05/16 00:00:19;;;;;;;7.20;4.43;;;;;;;;;;5135000;27;20366;-41
2023/05/16 00:03:06;;;;;;;7.93;4.80;;;;;;;;;;5134636;27;20223;-41
2023/05/16 00:05:33;;;;;;;5.75;4.50;;;;;;;;;;5134869;27;20206;-41
2023/05/16 00:08:00;;;;;;;6.22;4.65;;;;;;;;;;5134827;27;20233;-41
2023/05/16 00:10:27;;;;;;;7.78;4.72;;;;;;;;;;5134714;27;20726;-41
2023/05/16 00:12:56;;;;;;;6.07;4.50;;;;;;;;;;5134730;27;20205;-41
2023/05/16 00:15:23;;;;;;;8.30;4.70;;;;;;;;;;5134762;27;20225;-41
2023/05/16 00:17:51;;;;;;;5.50;4.28;;;;;;;;;;5134574;27;20618;-40
2023/05/16 00:20:22;;;;;;;4.47;3.60;;;;;;;;;;5134847;27;20204;-41
2023/05/16 00:22:50;;;;;;;6.22;4.20;;;;;;;;;;5134765;27;20228;-42
2023/05/16 00:25:17;;;;;;;5.20;3.80;;;;;;;;;;5134470;27;20209;-42
2023/05/16 00:27:44;;;;;;;6.70;4.97;;;;;;;;;;5134466;28;20656;-41
2023/05/16 00:30:11;;;;;;;7.43;4.25;;;;;;;;;;5134364;28;20201;-41
2023/05/16 00:32:38;;;;;;;6.95;4.68;;;;;;;;;;5134480;28;20262;-41
2023/05/16 00:35:09;;;;;;;7.13;4.85;;;;;;;;;;5134435;28;20542;-42
2023/05/16 00:37:37;;;;;;;7.05;4.43;;;;;;;;;;5116216;28;20189;-42
2023/05/16 00:40:05;;;;;;;6.75;4.68;;;;;;;;;;5134399;28;20648;-41
2023/05/16 00:42:32;;;;;;;6.03;4.13;;;;;;;;;;5134495;28;20233;-41
2023/05/16 00:44:59;;;;;;;6.65;4.78;;;;;;;;;;5116227;28;20193;-43
2023/05/16 00:47:27;;;;;;;6.13;4.18;;;;;;;;;;5134807;28;20201;-42
2023/05/16 00:49:55;;;;;;;8.82;4.63;;;;;;;;;;5134305;28;20201;-40
2023/05/16 00:52:23;;;;;;;5.80;4.43;;;;;;;;;;5134545;28;20258;-41
2023/05/16 00:54:50;;;;;;;5.40;4.30;;;;;;;;;;5116307;28;20201;-41
2023/05/16 00:57:18;;;;;;;6.80;5.40;;;;;;;;;;5136638;27;20677;-41
2023/05/16 00:59:46;;;;;;;6.78;4.85;;;;;;;;;;5138879;27;20194;-41
2023/05/16 01:02:13;;;;;;;5.75;4.00;;;;;;;;;;5138309;27;20225;-42
2023/05/16 01:04:42;;;;;;;5.95;4.15;;;;;;;;;;5138341;27;20203;-41
2023/05/16 01:07:09;;;;;;;5.40;4.10;;;;;;;;;;5138353;27;20233;-41
2023/05/16 01:09:37;;;;;;;7.40;4.93;;;;;;;;;;5138004;27;20201;-41
2023/05/16 01:12:07;;;;;;;6.63;4.45;;;;;;;;;;5138812;27;20194;-41
2023/05/16 01:14:34;;;;;;;6.22;4.40;;;;;;;;;;5138427;27;20204;-41
2023/05/16 01:17:07;;;;;;;7.57;4.60;;;;;;;;;;5138135;27;20302;-41
2023/05/16 01:19:46;;;;;;;5.55;4.15;;;;;;;;;;5120213;27;20239;-41
2023/05/16 01:22:30;;;;;;;5.10;4.28;;;;;;;;;;5119529;27;20205;-41
2023/05/16 01:25:15;;;;;;;9.95;4.25;;;;;;;;;;5119899;27;20201;-41
2023/05/16 01:27:44;;;;;;;7.45;4.55;;;;;;;;;;5138206;27;20177;-41
2023/05/16 01:30:17;;;;;;;6.97;4.47;;;;;;;;;;5137535;27;20197;-41
2023/05/16 01:32:45;;;;;;;7.90;5.22;;;;;;;;;;5137709;27;20238;-41
2023/05/16 01:35:14;;;;;;;6.95;4.75;;;;;;;;;;5138200;27;20228;-42
2023/05/16 01:37:47;;;;;;;5.97;4.30;;;;;;;;;;5138186;27;20201;-41
2023/05/16 01:40:50;;;;;;;5.88;4.20;;;;;;;;;;5119426;27;20589;-42
2023/05/16 01:43:24;;;;;;;6.60;4.68;;;;;;;;;;5102760;27;20564;-41
2023/05/16 01:45:57;;;;;;;8.65;4.80;;;;;;;;;;5119696;27;20193;-41
2023/05/16 01:48:32;;;;;;;8.32;4.90;;;;;;;;;;5119603;27;20185;-41
2023/05/16 01:50:59;;;;;;;8.52;4.35;;;;;;;;;;5137563;27;20196;-41
2023/05/16 01:53:38;;;;;;;5.85;4.32;;;;;;;;;;5102223;27;20209;-41
2023/05/16 01:56:09;;;;;;;7.28;4.85;;;;;;;;;;5137549;27;20208;-41
2023/05/16 01:58:37;;;;;;;6.07;4.65;;;;;;;;;;5102335;27;20197;-41
2023/05/16 02:01:05;;;;;;;7.72;3.95;;;;;;;;;;5101945;27;20200;-41
2023/05/16 02:03:33;;;;;;;6.80;4.93;;;;;;;;;;5136892;27;20230;-41
2023/05/16 02:06:00;;;;;;;6.15;4.20;;;;;;;;;;5118555;27;20225;-41
2023/05/16 02:08:28;;;;;;;5.95;4.13;;;;;;;;;;5135481;27;20648;-41
2023/05/16 02:10:55;;;;;;;5.10;4.13;;;;;;;;;;5117038;27;20598;-41
2023/05/16 02:13:22;;;;;;;9.27;4.70;;;;;;;;;;5135507;27;20212;-41
2023/05/16 02:15:49;;;;;;;6.18;4.50;;;;;;;;;;5136614;27;20560;-41
2023/05/16 02:18:17;;;;;;;6.95;4.00;;;;;;;;;;5136418;27;20186;-41
2023/05/16 02:20:44;;;;;;;6.93;4.72;;;;;;;;;;5136790;27;20198;-41
2023/05/16 02:23:12;;;;;;;6.32;4.47;;;;;;;;;;5136359;27;20221;-41
2023/05/16 02:25:38;;;;;;;6.82;4.38;;;;;;;;;;5137138;27;20204;-41
2023/05/16 02:28:09;;;;;;;5.32;4.15;;;;;;;;;;5118137;27;20197;-41
2023/05/16 02:30:36;;;;;;;6.00;4.15;;;;;;;;;;5136348;27;20258;-41
2023/05/16 02:33:03;;;;;;;6.07;4.10;;;;;;;;;;5117974;27;20227;-41
2023/05/16 02:35:30;;;;;;;6.03;4.05;;;;;;;;;;5118108;27;20209;-41
2023/05/16 02:37:59;;;;;;;6.50;4.32;;;;;;;;;;5136135;27;20197;-40
2023/05/16 02:40:26;;;;;;;9.00;5.35;;;;;;;;;;5136262;27;20209;-40
2023/05/16 02:42:53;;;;;;;6.13;4.60;;;;;;;;;;5135935;27;20226;-41
2023/05/16 02:45:20;;;;;;;7.43;4.07;;;;;;;;;;5117658;27;20206;-40
2023/05/16 02:47:47;;;;;;;6.72;4.55;;;;;;;;;;5136158;27;20202;-40
2023/05/16 02:50:14;;;;;;;6.38;4.13;;;;;;;;;;5135837;27;20205;-41
2023/05/16 02:52:41;;;;;;;4.97;3.75;;;;;;;;;;5135965;27;20209;-42
2023/05/16 02:55:09;;;;;;;5.90;4.60;;;;;;;;;;5135865;27;20197;-40
2023/05/16 02:57:56;;;;;;;6.53;3.95;;;;;;;;;;5117541;27;20238;-41
2023/05/16 03:00:23;;;;;;;7.40;4.18;;;;;;;;;;5117249;27;20266;-40
2023/05/16 03:02:51;;;;;;;5.13;3.92;;;;;;;;;;5135466;27;20637;-40
2023/05/16 03:05:18;;;;;;;5.63;4.10;;;;;;;;;;5116656;27;20197;-41
2023/05/16 03:07:46;;;;;;;6.05;4.90;;;;;;;;;;5135261;27;20240;-40
2023/05/16 03:10:12;;;;;;;7.43;4.72;;;;;;;;;;5135742;27;20683;-40
2023/05/16 03:12:40;;;;;;;5.93;4.22;;;;;;;;;;5135748;27;20213;-41
2023/05/16 03:15:08;;;;;;;7.07;4.70;;;;;;;;;;5117576;27;20201;-41
2023/05/16 03:17:35;;;;;;;6.63;4.78;;;;;;;;;;5135589;27;20652;-41
2023/05/16 03:20:04;;;;;;;6.43;4.32;;;;;;;;;;5135518;27;20197;-41
2023/05/16 03:22:31;;;;;;;6.50;4.43;;;;;;;;;;5117514;27;20213;-41
2023/05/16 03:24:58;;;;;;;5.70;3.88;;;;;;;;;;5117137;27;20197;-40
2023/05/16 03:27:26;;;;;;;6.00;4.50;;;;;;;;;;5128682;27;20226;-41
2023/05/16 03:29:53;;;;;;;8.23;4.93;;;;;;;;;;5114996;28;20293;-42
2023/05/16 03:32:20;;;;;;;5.60;4.10;;;;;;;;;;5110511;27;20557;-41
2023/05/16 03:34:47;;;;;;;7.05;4.60;;;;;;;;;;5114650;27;20239;-40
2023/05/16 03:37:14;;;;;;;6.30;4.35;;;;;;;;;;5114765;27;20204;-41
2023/05/16 03:39:41;;;;;;;6.78;4.32;;;;;;;;;;5133030;27;20254;-42
2023/05/16 03:42:09;;;;;;;7.60;4.32;;;;;;;;;;5112408;27;20197;-44
2023/05/16 03:44:36;;;;;;;7.43;4.60;;;;;;;;;;5128529;27;20266;-41
2023/05/16 03:47:04;;;;;;;5.78;4.47;;;;;;;;;;5129062;27;20239;-43
2023/05/16 03:49:31;;;;;;;7.75;4.35;;;;;;;;;;5132228;27;20229;-43
2023/05/16 03:51:58;;;;;;;4.97;3.95;;;;;;;;;;5133275;27;20204;-42
2023/05/16 03:54:26;;;;;;;6.20;4.28;;;;;;;;;;5130745;27;20297;-40
2023/05/16 03:56:53;;;;;;;6.32;4.03;;;;;;;;;;5134722;27;20209;-44
2023/05/16 03:59:20;;;;;;;5.97;4.45;;;;;;;;;;5134437;27;20200;-40
2023/05/16 04:01:48;;;;;;;5.20;3.95;;;;;;;;;;5132675;27;20548;-39
2023/05/16 04:04:15;;;;;;;5.30;4.20;;;;;;;;;;5131142;27;20229;-40
2023/05/16 04:06:43;;;;;;;6.03;4.18;;;;;;;;;;5132143;27;20240;-40
2023/05/16 04:09:10;;;;;;;5.25;4.03;;;;;;;;;;5121907;27;20230;-39
2023/05/16 04:11:37;;;;;;;7.30;4.82;;;;;;;;;;5128606;27;20220;-40
2023/05/16 04:14:04;;;;;;;6.63;4.50;;;;;;;;;;5127107;27;20236;-39
2023/05/16 04:16:31;;;;;;;5.28;3.90;;;;;;;;;;5125041;27;20226;-39
2023/05/16 04:18:58;;;;;;;7.22;4.40;;;;;;;;;;5116850;27;20297;-40
2023/05/16 04:21:26;;;;;;;5.63;3.92;;;;;;;;;;5134358;27;20221;-39
2023/05/16 04:23:53;;;;;;;6.90;4.07;;;;;;;;;;5133883;27;20233;-40
2023/05/16 04:26:21;;;;;;;5.93;4.15;;;;;;;;;;5133243;27;20217;-40
2023/05/16 04:28:48;;;;;;;5.22;4.03;;;;;;;;;;5132572;27;20220;-42
2023/05/16 04:31:17;;;;;;;5.13;3.67;;;;;;;;;;5129470;27;20229;-40
2023/05/16 04:33:44;;;;;;;6.25;3.92;;;;;;;;;;5129587;28;20566;-40
2023/05/16 04:36:12;;;;;;;5.35;4.28;;;;;;;;;;5133010;28;20217;-40
2023/05/16 04:38:40;;;;;;;4.55;3.72;;;;;;;;;;5132836;28;20225;-40
2023/05/16 04:41:07;;;;;;;5.68;3.53;;;;;;;;;;5111658;28;20236;-40
2023/05/16 04:43:34;;;;;;;5.93;3.97;;;;;;;;;;5132508;28;20590;-40
2023/05/16 04:46:02;;;;;;;4.25;3.30;;;;;;;;;;5133088;28;20213;-40
2023/05/16 04:48:29;;;;;;;3.72;3.10;;;;;;;;;;5129772;27;20213;-40
2023/05/16 04:50:57;;;;;;;5.00;3.60;;;;;;;;;;5114802;28;20247;-40
2023/05/16 04:53:24;;;;;;;4.80;3.00;;;;;;;;;;5128793;28;20232;-40
2023/05/16 04:55:52;;;;;;;4.10;2.80;;;;;;;;;;5122438;27;20233;-39
2023/05/16 04:58:19;;;;;;;5.75;2.92;;;;;;;;;;5124508;28;20250;-39
2023/05/16 05:00:46;;;;;;;5.82;2.90;;;;;;;;;;5112610;28;20278;-41
2023/05/16 05:03:13;;;;;;;4.22;2.75;;;;;;;;;;5112904;28;20301;-41
2023/05/16 05:05:40;;;;;;;4.63;3.05;;;;;;;;;;5094499;28;20271;-40
2023/05/16 05:08:07;;;;;;;3.08;2.25;;;;;;;;;;5128840;28;20239;-41
2023/05/16 05:10:35;;;;;;;3.15;2.47;;;;;;;;;;5133849;27;20206;-43
2023/05/16 05:13:02;;;;;;;3.25;2.70;;;;;;;;;;5130762;28;20190;-43
2023/05/16 05:15:29;;;;;;;3.25;2.55;;;;;;;;;;5130875;28;20219;-41
2023/05/16 05:17:57;;;;;;;2.85;2.38;;;;;;;;;;5129187;28;20629;-42
2023/05/16 05:20:24;;;;;;;3.83;2.22;;;;;;;;;;5131214;28;20587;-42
2023/05/16 05:22:51;;;;;;;3.25;2.70;;;;;;;;;;5132762;28;20675;-40
2023/05/16 05:25:18;;;;;;;3.47;2.30;;;;;;;;;;5133190;28;20233;-41
2023/05/16 05:27:45;;;;;;;2.60;2.40;;;;;;;;;;5133398;28;20197;-40
2023/05/16 05:30:12;;;;;;;3.70;2.58;;;;;;;;;;5134260;28;20587;-41
2023/05/16 05:32:40;;;;;;;3.40;2.58;;;;;;;;;;5133772;28;20250;-40
2023/05/16 05:35:07;;;;;;;2.88;2.05;;;;;;;;;;5133976;28;20212;-40
2023/05/16 05:37:35;;;;;;;2.45;1.85;;;;;;;;;;5134136;28;20202;-40
2023/05/16 05:40:02;;;;;;;3.33;2.20;;;;;;;;;;5133867;28;20208;-41
2023/05/16 05:42:30;;;;;;;3.90;1.92;;;;;;;;;;5133762;27;20197;-40
2023/05/16 05:44:57;;;;;;;1.92;1.75;;;;;;;;;;5136922;27;20232;-39
2023/05/16 05:47:24;;;;;;;2.70;2.08;;;;;;;;;;5137598;27;20209;-39
2023/05/16 05:49:51;;;;;;;2.95;2.38;;;;;;;;;;5114139;27;20596;-39
2023/05/16 05:52:18;;;;;;;2.10;1.75;;;;;;;;;;5099206;28;20198;-40
2023/05/16 05:54:47;;;;;;;2.35;2.00;;;;;;;;;;5116634;28;20209;-40
2023/05/16 05:57:14;;;;;;;3.05;1.92;;;;;;;;;;5116651;28;20202;-40
2023/05/16 05:59:41;;;;;;;2.55;1.80;;;;;;;;;;5124824;27;20236;-39
2023/05/16 06:02:08;;;;;;;1.95;1.58;;;;;;;;;;5137972;27;20201;-40
2023/05/16 06:04:36;;;;;;;3.05;1.83;;;;;;;;;;5118932;27;20218;-40
2023/05/16 06:07:04;;;;;;;2.58;1.70;;;;;;;;;;5137246;27;20229;-40
2023/05/16 06:09:31;;;;;;;2.88;2.17;;;;;;;;;;5136970;27;20618;-40
2023/05/16 06:11:58;;;;;;;2.67;2.10;;;;;;;;;;5136876;27;20205;-39
2023/05/16 06:14:25;;;;;;;2.42;2.08;;;;;;;;;;5134894;27;20201;-40
2023/05/16 06:16:53;;;;;;;2.38;1.67;;;;;;;;;;5122225;27;20202;-39
2023/05/16 06:19:20;;;;;;;2.15;1.85;;;;;;;;;;5130873;27;20258;-40
2023/05/16 06:21:47;;;;;;;2.75;1.80;;;;;;;;;;5098374;27;20676;-40
2023/05/16 06:24:14;;;;;;;2.28;1.58;;;;;;;;;;5137018;27;20217;-39
2023/05/16 06:26:42;;;;;;;2.42;1.95;;;;;;;;;;5136571;27;20254;-40
2023/05/16 06:29:09;;;;;;;2.28;2.00;;;;;;;;;;5136959;27;20204;-40
2023/05/16 06:31:36;;;;;;;2.47;1.98;;;;;;;;;;5136800;27;20193;-42
2023/05/16 06:34:03;;;;;;;2.20;1.80;;;;;;;;;;5136789;27;20301;-40
2023/05/16 06:36:30;;;;;;;2.85;2.15;;;;;;;;;;5136409;27;20265;-40
2023/05/16 06:38:57;;;;;;;2.67;2.15;;;;;;;;;;5136231;27;20193;-39
2023/05/16 06:41:25;;;;;;;5.70;2.00;;;;;;;;;;5136611;27;20201;-39
2023/05/16 06:43:52;;;;;;;2.40;2.00;;;;;;;;;;5136196;27;20704;-40
2023/05/16 06:46:19;;;;;;;2.42;1.90;;;;;;;;;;5136503;27;20557;-39
2023/05/16 06:48:46;;;;;;;2.33;1.83;;;;;;;;;;5136555;27;20205;-40
2023/05/16 06:51:15;;;;;;;2.33;2.05;;;;;;;;;;5136223;27;20246;-39
2023/05/16 06:53:42;;;;;;;2.50;1.80;;;;;;;;;;5136560;27;20228;-40
2023/05/16 06:56:09;;;;;;;2.80;2.05;;;;;;;;;;5134046;27;20197;-40
2023/05/16 06:58:36;;;;;;;2.53;1.77;;;;;;;;;;5115774;28;20198;-40
2023/05/16 07:01:03;;;;;;;2.08;1.42;;;;;;;;;;5115783;28;20202;-41
2023/05/16 07:03:31;;;;;;;2.03;1.67;;;;;;;;;;5122183;27;20311;-39
2023/05/16 07:05:58;;;;;;;1.85;1.55;;;;;;;;;;5135903;27;20214;-40
2023/05/16 07:08:25;;;;;;;2.97;1.70;;;;;;;;;;5135860;27;20263;-39
2023/05/16 07:10:52;;;;;;;2.40;1.90;;;;;;;;;;5126274;27;20209;-40
2023/05/16 07:13:19;;;;;;;2.35;1.75;;;;;;;;;;5115240;28;20285;-39
2023/05/16 07:15:47;;;;;;;2.00;1.58;;;;;;;;;;5118941;27;20210;-40
2023/05/16 07:18:14;;;;;;;1.83;1.55;;;;;;;;;;5135653;27;20205;-40
2023/05/16 07:20:42;;;;;;;2.08;1.83;;;;;;;;;;5135369;27;20664;-39
2023/05/16 07:23:09;;;;;;;3.10;1.92;;;;;;;;;;5135806;27;20197;-39
2023/05/16 07:25:39;;;;;;;1.90;1.45;;;;;;;;;;5135409;27;20220;-39
2023/05/16 07:28:06;;;;;;;2.72;1.90;;;;;;;;;;5117444;27;20197;-39
2023/05/16 07:30:33;;;;;;;3.42;1.95;;;;;;;;;;5135315;27;20198;-40
2023/05/16 07:33:00;;;;;;;1.90;1.70;;;;;;;;;;5135252;27;20234;-39
2023/05/16 07:35:28;;;;;;;2.13;1.92;;;;;;;;;;5135549;27;20218;-39
2023/05/16 07:37:55;;;;;;;3.78;2.05;;;;;;;;;;5135288;27;20212;-39
2023/05/16 07:40:28;;;;;;;1.95;1.63;;;;;;;;;;5135375;27;20205;-39
2023/05/16 07:42:55;;;;;;;1.90;1.70;;;;;;;;;;5135177;27;20186;-39
2023/05/16 07:45:22;;;;;;;4.10;1.75;;;;;;;;;;5134900;27;20233;-39
2023/05/16 07:47:49;;;;;;;2.50;2.00;;;;;;;;;;5135154;27;20209;-39
2023/05/16 07:50:17;;;;;;;2.13;1.70;;;;;;;;;;5135301;27;20254;-39
2023/05/16 07:52:44;;;;;;;2.40;2.10;;;;;;;;;;5135208;27;20197;-41
2023/05/16 07:55:12;;;;;;;2.38;1.73;;;;;;;;;;5135345;27;20213;-39
2023/05/16 07:57:39;;;;;;;2.55;1.77;;;;;;;;;;5134913;27;20225;-39
2023/05/16 08:00:07;;;;;;;2.00;1.80;;;;;;;;;;5099688;27;20640;-39
2023/05/16 08:02:40;;;;;;;3.40;1.85;;;;;;;;;;5135361;27;20527;-39
2023/05/16 08:05:08;;;;;;;2.08;1.60;;;;;;;;;;5134900;27;20220;-40
2023/05/16 08:07:35;;;;;;;2.47;2.00;;;;;;;;;;5133984;27;20244;-39
2023/05/16 08:10:02;;;;;;;3.22;1.70;;;;;;;;;;5129141;27;20692;-39
2023/05/16 08:12:30;;;;;;;2.35;1.77;;;;;;;;;;5120985;27;20253;-40
2023/05/16 08:14:57;;;;;;;2.60;1.88;;;;;;;;;;5114481;28;20216;-39
2023/05/16 08:17:25;;;;;;;1.90;1.70;;;;;;;;;;5125142;27;20721;-40
2023/05/16 08:19:52;;;;;;;2.33;2.10;;;;;;;;;;5114140;28;20204;-39
2023/05/16 08:22:19;;;;;;;2.05;1.85;;;;;;;;;;5114529;28;20206;-39
2023/05/16 08:24:46;;;;;;;2.65;1.80;;;;;;;;;;5114219;28;20218;-40
2023/05/16 08:27:14;;;;;;;2.15;1.70;;;;;;;;;;5113825;28;20202;-39
2023/05/16 08:29:41;;;;;;;2.95;1.90;;;;;;;;;;5114210;28;20206;-40
2023/05/16 08:32:11;;;;;;;1.67;1.45;;;;;;;;;;5114134;28;20198;-39
2023/05/16 08:34:38;;;;;;;2.10;1.80;;;;;;;;;;5114180;28;20206;-40
2023/05/16 08:37:05;;;;;;;3.20;1.75;;;;;;;;;;5113974;28;20202;-39
2023/05/16 08:39:32;;;;;;;2.22;1.80;;;;;;;;;;5113736;28;20771;-39
2023/05/16 08:42:00;;;;;;;2.55;1.90;;;;;;;;;;5113832;28;20210;-39
2023/05/16 08:44:27;;;;;;;2.20;2.00;;;;;;;;;;5113961;28;20300;-39
2023/05/16 08:46:56;;;;;;;2.83;1.80;;;;;;;;;;5095932;28;20198;-39
2023/05/16 08:49:26;;;;;;;2.63;1.88;;;;;;;;;;5113659;28;20198;-40
2023/05/16 08:51:56;;;;;;;2.90;2.17;;;;;;;;;;5113764;28;20683;-40
2023/05/16 08:54:24;;;;;;;2.88;1.98;;;;;;;;;;5113682;28;20288;-42
2023/05/16 08:56:54;;;;;;;2.05;1.63;;;;;;;;;;5096509;28;20247;-40
2023/05/16 08:59:21;;;;;;;2.65;1.88;;;;;;;;;;5095732;28;20202;-40
2023/05/16 09:01:49;;;;;;;2.42;1.80;;;;;;;;;;5095770;28;20573;-39
2023/05/16 09:04:16;;;;;;;2.25;1.88;;;;;;;;;;5113447;28;20208;-40
2023/05/16 09:06:44;;;;;;;2.85;1.77;;;;;;;;;;5113590;28;20229;-40
2023/05/16 09:09:11;;;;;;;2.30;2.05;;;;;;;;;;5113824;28;20202;-39
2023/05/16 09:11:39;;;;;;;4.25;2.00;;;;;;;;;;5113441;28;20204;-40
2023/05/16 09:14:06;;;;;;;2.30;1.90;;;;;;;;;;5113727;28;20198;-39
2023/05/16 09:16:33;;;;;;;2.28;1.42;;;;;;;;;;5113811;28;20209;-39
2023/05/16 09:19:00;;;;;;;3.22;1.70;;;;;;;;;;5116836;28;20198;-39
2023/05/16 09:21:30;;;;;;;2.63;1.73;;;;;;;;;;5099433;28;20599;-40
2023/05/16 09:24:05;;;;;;;1.60;1.50;;;;;;;;;;5117312;28;20208;-39
2023/05/16 09:26:34;;;;;;;1.88;1.67;;;;;;;;;;5117887;28;20225;-39
2023/05/16 09:29:09;;;;;;;1.80;1.50;;;;;;;;;;5117230;28;20576;-39
2023/05/16 09:31:37;;;;;;;2.00;1.67;;;;;;;;;;5117234;28;20201;-40
2023/05/16 09:34:09;;;;;;;2.40;1.65;;;;;;;;;;5117011;28;20233;-40
2023/05/16 09:36:37;;;;;;;1.52;1.40;;;;;;;;;;5117179;28;20206;-39
2023/05/16 09:39:07;;;;;;;3.00;1.90;;;;;;;;;;5117368;28;20208;-40
2023/05/16 09:41:35;;;;;;;2.85;1.67;;;;;;;;;;5117275;28;20201;-39
2023/05/16 09:44:05;;;;;;;3.35;1.77;;;;;;;;;;5117123;28;20285;-39
2023/05/16 09:46:35;;;;;;;1.80;1.50;;;;;;;;;;5117016;28;20221;-39
2023/05/16 09:49:02;;;;;;;1.88;1.60;;;;;;;;;;5117105;28;20640;-39
2023/05/16 09:51:30;;;;;;;1.83;1.52;;;;;;;;;;5117125;28;20209;-39
2023/05/16 09:53:58;;;;;;;3.15;1.75;;;;;;;;;;5098848;28;20204;-40
2023/05/16 09:56:26;;;;;;;1.63;1.52;;;;;;;;;;5116978;28;20549;-40
2023/05/16 09:58:53;;;;;;;2.78;1.70;;;;;;;;;;5116551;28;20683;-40
2023/05/16 10:01:20;;;;;;;2.28;1.50;;;;;;;;;;5116553;28;20198;-39
2023/05/16 10:03:47;;;;;;;1.50;1.40;;;;;;;;;;5098928;28;20201;-40
2023/05/16 10:06:15;;;;;;;3.08;1.65;;;;;;;;;;5116258;28;20680;-40
2023/05/16 10:08:43;;;;;;;3.45;2.00;;;;;;;;;;5116899;28;20297;-39
2023/05/16 10:11:10;;;;;;;2.22;1.73;;;;;;;;;;5116502;28;20206;-39
2023/05/16 10:13:38;;;;;;;1.75;1.60;;;;;;;;;;5116432;28;20248;-40
2023/05/16 10:16:11;;;;;;;2.30;1.50;;;;;;;;;;5116511;28;20210;-39
2023/05/16 10:18:40;;;;;;;2.97;1.50;;;;;;;;;;5116723;28;20236;-40
2023/05/16 10:21:10;;;;;;;2.00;1.63;;;;;;;;;;5098463;28;20258;-40
2023/05/16 10:23:41;;;;;;;2.17;1.50;;;;;;;;;;5098673;28;20225;-39
2023/05/16 10:26:10;;;;;;;2.33;1.48;;;;;;;;;;5116400;28;20224;-39
2023/05/16 10:28:38;;;;;;;2.38;1.88;;;;;;;;;;5115701;28;20212;-39
2023/05/16 10:31:07;;;;;;;2.38;1.60;;;;;;;;;;5097996;28;20225;-39
2023/05/16 10:33:34;;;;;;;2.25;1.70;;;;;;;;;;5116005;28;20214;-39
2023/05/16 10:36:04;;;;;;;2.75;1.50;;;;;;;;;;5116069;28;20198;-39
2023/05/16 10:38:32;;;;;;;2.78;1.30;;;;;;;;;;5115886;28;20542;-39
2023/05/16 10:41:00;;;;;;;2.25;1.67;;;;;;;;;;5115818;28;20255;-40
2023/05/16 10:43:29;;;;;;;2.20;1.75;;;;;;;;;;5116133;28;20206;-40
2023/05/16 10:46:02;;;;;;;1.50;1.40;;;;;;;;;;5115835;28;20230;-39
2023/05/16 10:48:31;;;;;;;2.33;1.60;;;;;;;;;;5115685;28;20189;-40
2023/05/16 10:50:58;;;;;;;2.05;1.58;;;;;;;;;;5115553;28;20657;-39
2023/05/16 10:53:31;;;;;;;2.53;1.80;;;;;;;;;;5116159;28;20202;-39
2023/05/16 10:55:58;;;;;;;1.50;1.40;;;;;;;;;;5115999;28;20209;-39
2023/05/16 10:58:37;;;;;;;2.00;1.48;;;;;;;;;;5116176;28;20228;-40
2023/05/16 11:01:26;;;;;;;2.60;1.85;;;;;;;;;;5115724;28;20194;-39
2023/05/16 11:03:59;;;;;;;3.00;1.60;;;;;;;;;;5115774;28;20202;-40
2023/05/16 11:06:33;;;;;;;1.65;1.40;;;;;;;;;;5115644;28;20246;-40
2023/05/16 11:09:05;;;;;;;2.00;1.73;;;;;;;;;;5115331;28;20183;-40
2023/05/16 11:11:38;;;;;;;1.80;1.48;;;;;;;;;;5115723;28;20243;-39
2023/05/16 11:14:05;;;;;;;1.95;1.63;;;;;;;;;;5115482;28;20570;-41
2023/05/16 11:16:34;;;;;;;2.85;1.77;;;;;;;;;;5115557;28;20214;-39
2023/05/16 11:19:06;;;;;;;2.03;1.55;;;;;;;;;;5115119;28;20198;-39
2023/05/16 11:22:05;;;;;;;1.67;1.55;;;;;;;;;;5115153;28;20652;-39
2023/05/16 11:24:34;;;;;;;6.93;1.65;;;;;;;;;;5120537;27;20186;-43
2023/05/16 11:27:03;;;;;;;1.88;1.50;;;;;;;;;;5134392;27;20633;-40
2023/05/16 11:29:32;;;;;;;2.47;1.67;;;;;;;;;;5133939;27;20219;-42
2023/05/16 11:32:01;;;;;;;2.90;1.58;;;;;;;;;;5133892;27;20212;-40
2023/05/16 11:34:36;;;;;;;2.95;1.70;;;;;;;;;;5134847;27;20564;-40
2023/05/16 11:37:04;;;;;;;2.38;2.00;;;;;;;;;;5135477;27;20201;-39
2023/05/16 11:39:31;;;;;;;2.78;1.63;;;;;;;;;;5135428;27;20657;-39
2023/05/16 11:41:58;;;;;;;2.13;1.70;;;;;;;;;;5135340;27;20216;-40
2023/05/16 11:44:35;;;;;;;1.60;1.50;;;;;;;;;;5135209;27;20236;-40
2023/05/16 11:47:03;;;;;;;1.90;1.80;;;;;;;;;;5133649;27;20221;-39
2023/05/16 11:49:30;;;;;;;2.38;1.65;;;;;;;;;;5092689;27;20276;-41
2023/05/16 11:51:58;;;;;;;2.20;1.67;;;;;;;;;;5133749;27;20535;-41
2023/05/16 11:54:25;;;;;;;1.88;1.63;;;;;;;;;;5133621;27;20197;-40
2023/05/16 11:56:53;;;;;;;1.58;1.48;;;;;;;;;;5133944;27;20204;-40
2023/05/16 11:59:23;;;;;;;2.63;1.70;;;;;;;;;;5133811;27;20182;-40
2023/05/16 12:01:51;;;;;;;2.45;2.00;;;;;;;;;;5132814;27;20193;-41
2023/05/16 12:04:19;;;;;;;2.05;1.73;;;;;;;;;;5133388;27;20280;-39
2023/05/16 12:06:57;;;;;;;3.65;1.98;;;;;;;;;;5112687;27;20587;-41
2023/05/16 12:09:25;;;;;;;2.53;1.63;;;;;;;;;;5132200;27;20251;-40
2023/05/16 12:11:53;;;;;;;1.65;1.48;;;;;;;;;;5132979;27;20593;-40
2023/05/16 12:14:20;;;;;;;1.80;1.65;;;;;;;;;;5133165;27;20201;-40
2023/05/16 12:16:48;;;;;;;3.17;1.95;;;;;;;;;;5131836;27;20197;-40
2023/05/16 12:19:15;;;;;;;2.45;1.67;;;;;;;;;;5115073;27;20185;-40
2023/05/16 12:21:44;;;;;;;1.75;1.42;;;;;;;;;;5080240;28;20193;-41
2023/05/16 12:24:11;;;;;;;2.63;1.80;;;;;;;;;;5133036;27;20243;-41
2023/05/16 12:26:42;;;;;;;2.88;2.03;;;;;;;;;;5133871;27;20614;-41
2023/05/16 12:29:10;;;;;;;2.92;1.90;;;;;;;;;;5132517;27;20322;-40
2023/05/16 12:31:39;;;;;;;2.97;1.83;;;;;;;;;;5133698;28;20194;-41
2023/05/16 12:34:15;;;;;;;3.03;2.00;;;;;;;;;;5133983;28;20239;-41
2023/05/16 12:36:43;;;;;;;1.65;1.55;;;;;;;;;;5126968;27;20221;-40
2023/05/16 12:39:11;;;;;;;2.40;2.10;;;;;;;;;;5124833;28;20771;-41
2023/05/16 12:41:43;;;;;;;2.05;1.70;;;;;;;;;;5130692;28;20220;-43
2023/05/16 12:44:16;;;;;;;1.75;1.52;;;;;;;;;;5132381;28;20250;-40
2023/05/16 12:46:45;;;;;;;1.85;1.70;;;;;;;;;;5130152;27;20229;-43
2023/05/16 12:49:13;;;;;;;1.83;1.73;;;;;;;;;;5131827;28;20224;-43
2023/05/16 12:51:48;;;;;;;2.05;1.77;;;;;;;;;;5131242;27;20224;-43
2023/05/16 12:54:15;;;;;;;4.55;1.98;;;;;;;;;;5136252;27;20217;-41
2023/05/16 12:56:43;;;;;;;2.00;1.80;;;;;;;;;;5136519;27;20275;-40
2023/05/16 12:59:13;;;;;;;2.45;2.08;;;;;;;;;;5136700;27;20220;-44
2023/05/16 13:01:40;;;;;;;2.90;2.05;;;;;;;;;;5133717;27;20228;-42
2023/05/16 13:04:08;;;;;;;2.60;1.77;;;;;;;;;;5135858;27;20241;-41
2023/05/16 13:06:36;;;;;;;4.82;1.67;;;;;;;;;;5134801;27;20241;-41
2023/05/16 13:09:23;;;;;;;1.63;1.52;;;;;;;;;;5135174;27;20237;-40
2023/05/16 13:11:52;;;;;;;1.90;1.70;;;;;;;;;;5136600;27;20699;-41
2023/05/16 13:14:19;;;;;;;2.20;1.77;;;;;;;;;;5135663;27;20647;-40
2023/05/16 13:16:46;;;;;;;2.60;1.70;;;;;;;;;;5135851;27;20580;-40
2023/05/16 13:19:14;;;;;;;2.33;1.98;;;;;;;;;;5133266;27;20240;-43
2023/05/16 13:21:41;;;;;;;3.20;1.90;;;;;;;;;;5136983;27;20247;-39
2023/05/16 13:24:08;;;;;;;1.60;1.50;;;;;;;;;;5137255;27;20242;-40
2023/05/16 13:26:36;;;;;;;2.33;1.70;;;;;;;;;;5136993;27;20236;-40
2023/05/16 13:29:03;;;;;;;1.80;1.42;;;;;;;;;;5137225;27;20217;-39
2023/05/16 13:31:30;;;;;;;2.10;1.80;;;;;;;;;;5137242;27;20228;-41
2023/05/16 13:33:57;;;;;;;2.85;1.95;;;;;;;;;;5137015;27;20225;-40
2023/05/16 13:36:25;;;;;;;2.17;1.80;;;;;;;;;;5136585;27;20236;-40
2023/05/16 13:38:52;;;;;;;2.05;1.73;;;;;;;;;;5137029;27;20228;-40
2023/05/16 13:41:19;;;;;;;1.55;1.45;;;;;;;;;;5137119;27;20221;-42
2023/05/16 13:43:46;;;;;;;2.22;1.80;;;;;;;;;;5136642;27;20229;-42
2023/05/16 13:46:14;;;;;;;1.88;1.70;;;;;;;;;;5137008;27;20241;-41
2023/05/16 13:48:41;;;;;;;1.88;1.77;;;;;;;;;;5134609;27;20618;-40
2023/05/16 13:51:10;;;;;;;2.42;1.35;;;;;;;;;;5125405;27;20225;-40
2023/05/16 13:53:38;;;;;;;1.98;1.48;;;;;;;;;;5133619;27;20224;-40
2023/05/16 13:56:05;;;;;;;2.60;1.70;;;;;;;;;;5133951;27;20232;-42
2023/05/16 13:58:32;;;;;;;1.80;1.70;;;;;;;;;;5111550;27;20293;-42
2023/05/16 14:01:01;;;;;;;4.40;1.55;;;;;;;;;;5137169;27;20201;-41
2023/05/16 14:03:28;;;;;;;2.05;1.48;;;;;;;;;;5136597;27;20652;-41
2023/05/16 14:05:56;;;;;;;2.65;1.92;;;;;;;;;;5136332;27;20274;-41
2023/05/16 14:08:23;;;;;;;2.33;1.80;;;;;;;;;;5137104;27;20197;-41
2023/05/16 14:10:50;;;;;;;1.70;1.60;;;;;;;;;;5135534;27;20201;-41
2023/05/16 14:13:17;;;;;;;1.80;1.60;;;;;;;;;;5117115;27;20284;-43
2023/05/16 14:15:45;;;;;;;3.15;1.58;;;;;;;;;;5136170;27;20246;-40
2023/05/16 14:18:12;;;;;;;2.60;1.75;;;;;;;;;;5136290;27;20202;-42
2023/05/16 14:20:40;;;;;;;3.58;1.65;;;;;;;;;;5136366;27;20217;-41
2023/05/16 14:23:07;;;;;;;2.03;1.65;;;;;;;;;;5129641;27;20723;-43
2023/05/16 14:25:35;;;;;;;1.92;1.58;;;;;;;;;;5116368;28;20209;-42
2023/05/16 14:28:02;;;;;;;2.00;1.60;;;;;;;;;;5098391;28;20254;-41
2023/05/16 14:30:30;;;;;;;1.60;1.40;;;;;;;;;;5116109;28;20222;-41
2023/05/16 14:32:58;;;;;;;2.38;1.70;;;;;;;;;;5118582;27;20717;-41
2023/05/16 14:35:25;;;;;;;1.80;1.70;;;;;;;;;;5125244;27;20213;-41
2023/05/16 14:37:53;;;;;;;2.53;1.90;;;;;;;;;;5116142;28;20202;-42
2023/05/16 14:40:20;;;;;;;1.90;1.70;;;;;;;;;;5116257;28;20202;-40
2023/05/16 14:42:47;;;;;;;2.67;1.77;;;;;;;;;;5115943;28;20202;-40
2023/05/16 14:45:15;;;;;;;4.00;1.90;;;;;;;;;;5118996;27;20194;-41
2023/05/16 14:47:42;;;;;;;2.03;1.80;;;;;;;;;;5136137;27;20308;-41
2023/05/16 14:50:10;;;;;;;2.55;1.83;;;;;;;;;;5136265;27;20197;-40